Cut Off, Louisiana
Current Conditions -  °F | °C
As of 12:55 AM on Sunday 23 Nov 2014 (Local Time) from KHUM Reporting Station
Light Rain Light Rain  
Wind Chill: 64°   Ceiling: 500
Heat Index: 64°   Visibility: 7mi
Dew Point: 64°   Wind: 9mph
Humidity: 98%   Direction: 60°ENE
Pressure: 29.84"   Gusts: NA
Location:  29.54°N, 90.34°W
Report Text: KHUM 230655Z AUTO 06008KT 7SM -RA OVC005 18/18 A2984 RMK AO2 T01800176
Loading
Personal Weather Stations






























Interactive Weather Map New forecast layout! Learn more

10-Day Weather Forecast

Advertisements
Track Severe Weather on mobile